createdAt,value
2022-08-25T00:00:24.390Z,4.50
2022-08-25T00:05:29.323Z,4.35
2022-08-25T00:10:37.174Z,5.47
2022-08-25T00:15:39.134Z,6.03
2022-08-25T00:20:41.059Z,8.30
2022-08-25T00:25:50.966Z,6.57
2022-08-25T00:30:53.107Z,4.88
2022-08-25T00:35:56.421Z,5.78
2022-08-25T00:41:07.442Z,4.88
2022-08-25T00:46:10.696Z,5.47
2022-08-25T00:51:15.782Z,5.32
2022-08-25T00:56:18.864Z,6.20
2022-08-25T01:01:23.776Z,4.93
2022-08-25T01:06:27.389Z,5.00
2022-08-25T01:11:29.412Z,5.03
2022-08-25T01:16:31.947Z,5.05
2022-08-25T01:21:41.707Z,4.85
2022-08-25T01:26:43.521Z,5.13
2022-08-25T01:31:46.695Z,5.70
2022-08-25T01:36:48.668Z,5.95
2022-08-25T01:52:33.346Z,6.15
2022-08-25T01:57:35.199Z,7.03
2022-08-25T02:02:37.375Z,6.93
2022-08-25T02:07:44.681Z,6.35
2022-08-25T02:12:46.511Z,6.72
2022-08-25T02:17:49.170Z,6.78
2022-08-25T02:22:56.548Z,7.65
2022-08-25T02:27:59.084Z,7.60
2022-08-25T02:33:01.365Z,7.82
2022-08-25T02:38:03.906Z,8.07
2022-08-25T02:43:06.200Z,8.13
2022-08-25T02:48:08.382Z,8.25
2022-08-25T02:53:10.194Z,7.28
2022-08-25T02:58:12.098Z,7.00
2022-08-25T03:03:23.211Z,7.80
2022-08-25T03:08:25.984Z,7.88
2022-08-25T03:13:27.942Z,7.20
2022-08-25T03:18:30.541Z,8.02
2022-08-25T03:23:33.063Z,7.65
2022-08-25T03:28:35.745Z,7.03
2022-08-25T03:33:38.517Z,8.52
2022-08-25T03:38:41.148Z,7.22
2022-08-25T03:43:43.961Z,8.30
2022-08-25T03:48:46.358Z,7.53
2022-08-25T03:53:48.375Z,8.40
2022-08-25T03:58:50.638Z,8.15
2022-08-25T04:03:52.895Z,6.68
2022-08-25T04:08:55.153Z,7.28
2022-08-25T04:14:06.470Z,8.02
2022-08-25T04:24:21.922Z,7.57
2022-08-25T04:29:26.195Z,7.15
2022-08-25T04:34:31.113Z,7.03
2022-08-25T04:39:43.016Z,7.40
2022-08-25T04:44:58.250Z,6.68
2022-08-25T04:51:22.127Z,7.10
2022-08-25T04:56:26.218Z,7.75
2022-08-25T05:08:05.152Z,8.02
2022-08-25T05:13:07.831Z,8.15
2022-08-25T05:18:10.563Z,8.02
2022-08-25T05:23:13.073Z,7.85
2022-08-25T05:28:17.835Z,8.18
2022-08-25T05:33:20.436Z,8.55
2022-08-25T05:38:26.710Z,10.93
2022-08-25T05:43:29.072Z,9.38
2022-08-25T05:48:31.329Z,10.45
2022-08-25T05:53:34.208Z,10.32
2022-08-25T05:58:37.094Z,10.07
2022-08-25T06:03:38.881Z,10.77
2022-08-25T06:08:41.153Z,10.20
2022-08-25T06:13:43.355Z,10.45
2022-08-25T06:18:45.792Z,10.48
2022-08-25T06:23:49.314Z,9.48
2022-08-25T06:28:52.380Z,18.00
2022-08-25T06:33:54.595Z,9.25
2022-08-25T06:38:56.705Z,9.25
2022-08-25T06:44:04.946Z,8.98
2022-08-25T06:49:08.159Z,8.48
2022-08-25T06:54:10.675Z,7.97
2022-08-25T06:59:12.812Z,8.65
2022-08-25T07:04:14.741Z,7.22
2022-08-25T07:09:16.973Z,6.65
2022-08-25T07:14:19.568Z,6.80
2022-08-25T07:19:21.520Z,6.30
2022-08-25T07:24:23.799Z,6.28
2022-08-25T07:29:32.754Z,6.80
2022-08-25T07:34:53.753Z,5.90
2022-08-25T07:39:55.606Z,5.63
2022-08-25T07:44:58.824Z,6.30
2022-08-25T07:50:00.554Z,6.47
2022-08-25T07:55:03.396Z,5.70
2022-08-25T08:00:06.821Z,6.72
2022-08-25T08:05:10.014Z,5.60
2022-08-25T08:10:54.157Z,5.47
2022-08-25T08:15:37.884Z,4.93
2022-08-25T08:20:43.096Z,5.53
2022-08-25T08:25:45.327Z,5.50
2022-08-25T08:30:53.496Z,5.53
2022-08-25T08:35:59.350Z,5.07
2022-08-25T08:41:26.136Z,6.05
2022-08-25T08:46:46.065Z,5.10
2022-08-25T08:51:56.144Z,5.22
2022-08-25T08:57:08.858Z,5.13
2022-08-25T09:02:39.468Z,5.13
2022-08-25T09:07:56.479Z,5.25
2022-08-25T09:13:18.475Z,5.07
2022-08-25T09:18:50.837Z,4.80
2022-08-25T09:24:25.415Z,3.97
2022-08-25T09:29:36.364Z,4.00
2022-08-25T09:34:39.763Z,4.63
2022-08-25T09:39:42.300Z,3.90
2022-08-25T09:44:46.258Z,4.50
2022-08-25T09:49:51.828Z,3.97
2022-08-25T09:54:55.583Z,3.97
2022-08-25T09:59:58.011Z,3.78
2022-08-25T10:05:18.732Z,3.60
2022-08-25T10:10:33.231Z,4.05
2022-08-25T10:15:38.690Z,3.38
2022-08-25T10:20:44.384Z,3.78
2022-08-25T10:25:59.387Z,3.40
2022-08-25T10:31:12.954Z,3.47
2022-08-25T10:36:23.081Z,3.77
2022-08-25T10:41:36.465Z,3.38
2022-08-25T10:46:50.840Z,4.18
2022-08-25T10:52:03.345Z,3.45
2022-08-25T10:57:08.265Z,3.95
2022-08-25T11:02:47.218Z,3.95
2022-08-25T11:07:55.789Z,4.35
2022-08-25T11:13:06.892Z,4.40
2022-08-25T11:18:15.185Z,4.07
2022-08-25T11:23:33.874Z,3.60
2022-08-25T11:28:51.634Z,3.70
2022-08-25T11:33:55.413Z,4.25
2022-08-25T11:39:24.355Z,4.35
2022-08-25T11:44:53.847Z,4.07
2022-08-25T11:50:07.159Z,3.90
2022-08-25T11:55:45.621Z,3.63
2022-08-25T12:00:47.553Z,4.70
2022-08-25T12:05:52.844Z,4.10
2022-08-25T12:10:56.974Z,4.00
2022-08-25T12:16:01.281Z,4.40
2022-08-25T12:21:06.917Z,3.92
2022-08-25T12:26:17.950Z,3.72
2022-08-25T12:31:47.797Z,3.55
2022-08-25T12:36:59.002Z,3.90
2022-08-25T12:42:07.438Z,3.85
2022-08-25T12:47:23.707Z,4.25
2022-08-25T12:52:27.965Z,3.63
2022-08-25T12:57:46.041Z,4.03
2022-08-25T13:03:22.705Z,3.78
2022-08-25T13:08:36.972Z,3.63
2022-08-25T13:13:44.889Z,3.45
2022-08-25T13:18:51.323Z,3.47
2022-08-25T13:24:04.669Z,3.92
2022-08-25T13:29:17.832Z,3.42
2022-08-25T13:34:22.991Z,3.53
2022-08-25T13:39:58.643Z,4.00
2022-08-25T13:44:59.913Z,3.80
2022-08-25T13:50:20.935Z,3.35
2022-08-25T13:55:29.703Z,3.80
2022-08-25T14:01:22.878Z,3.20
2022-08-25T14:06:38.768Z,3.30
2022-08-25T14:11:46.458Z,3.03
2022-08-25T14:16:54.201Z,3.63
2022-08-25T14:22:02.166Z,3.13
2022-08-25T14:27:05.115Z,3.35
2022-08-25T14:32:07.192Z,3.40
2022-08-25T14:37:20.267Z,3.85
2022-08-25T14:42:27.371Z,3.60
2022-08-25T14:47:31.694Z,3.10
2022-08-25T14:52:33.552Z,3.47
2022-08-25T14:57:40.530Z,3.90
2022-08-25T15:02:50.341Z,2.70
2022-08-25T15:08:22.177Z,3.80
2022-08-25T15:13:37.545Z,3.78
2022-08-25T15:18:41.124Z,3.42
2022-08-25T15:23:45.087Z,3.10
2022-08-25T15:28:50.268Z,3.30
2022-08-25T15:33:52.617Z,3.90
2022-08-25T15:38:54.696Z,3.53
2022-08-25T15:43:59.697Z,3.08
2022-08-25T15:49:02.032Z,2.92
2022-08-25T15:54:04.448Z,3.60
2022-08-25T15:59:08.636Z,3.50
2022-08-25T16:04:11.323Z,3.38
2022-08-25T16:09:13.127Z,3.35
2022-08-25T16:14:15.079Z,3.30
2022-08-25T16:19:17.579Z,3.47
2022-08-25T16:24:20.246Z,3.30
2022-08-25T16:29:22.913Z,2.95
2022-08-25T16:34:28.699Z,3.80
2022-08-25T16:39:33.170Z,3.53
2022-08-25T16:44:35.498Z,3.42
2022-08-25T16:49:38.089Z,4.10
2022-08-25T16:54:59.065Z,3.42
2022-08-25T17:00:01.501Z,3.60
2022-08-25T17:05:03.929Z,3.30
2022-08-25T17:10:07.532Z,3.25
2022-08-25T17:15:21.410Z,4.13
2022-08-25T17:20:23.934Z,3.70
2022-08-25T17:25:30.158Z,4.10
2022-08-25T17:30:34.159Z,3.78
2022-08-25T17:35:41.168Z,3.83
2022-08-25T17:40:43.815Z,3.38
2022-08-25T17:45:46.056Z,4.03
2022-08-25T17:50:50.846Z,3.92
2022-08-25T17:56:01.480Z,4.07
2022-08-25T18:01:05.246Z,3.95
2022-08-25T18:06:07.327Z,3.85
2022-08-25T18:11:09.922Z,4.10
2022-08-25T18:16:14.041Z,4.18
2022-08-25T18:21:17.951Z,3.20
2022-08-25T18:26:25.452Z,3.47
2022-08-25T18:31:34.212Z,3.72
2022-08-25T18:36:53.494Z,3.78
2022-08-25T18:41:55.679Z,3.92
2022-08-25T18:46:58.133Z,3.88
2022-08-25T18:51:59.803Z,3.55
2022-08-25T18:57:02.619Z,11.98
2022-08-25T19:02:05.204Z,4.35
2022-08-25T19:07:08.992Z,5.93
2022-08-25T19:12:11.586Z,5.53
2022-08-25T19:17:24.762Z,6.88
2022-08-25T19:22:41.255Z,5.93
2022-08-25T19:27:45.025Z,5.22
2022-08-25T19:32:47.912Z,4.35
2022-08-25T19:37:51.800Z,4.70
2022-08-25T19:42:53.968Z,10.05
2022-08-25T19:47:56.522Z,4.60
2022-08-25T19:52:59.793Z,5.05
2022-08-25T19:58:04.115Z,5.68
2022-08-25T20:03:07.399Z,7.00
2022-08-25T20:08:09.303Z,6.30
2022-08-25T20:13:11.425Z,5.55
2022-08-25T20:18:14.038Z,5.75
2022-08-25T20:23:34.509Z,5.00
2022-08-25T20:28:36.458Z,5.68
2022-08-25T20:33:38.393Z,5.10
2022-08-25T20:38:44.805Z,4.95
2022-08-25T20:43:46.749Z,4.82
2022-08-25T20:48:48.561Z,5.35
2022-08-25T20:53:50.710Z,5.63
2022-08-25T20:58:52.553Z,5.60
2022-08-25T21:03:54.288Z,5.13
2022-08-25T21:08:55.949Z,5.40
2022-08-25T21:13:59.390Z,6.18
2022-08-25T21:19:01.577Z,6.45
2022-08-25T21:24:05.206Z,5.78
2022-08-25T21:29:10.484Z,6.07
2022-08-25T21:34:20.375Z,5.10
2022-08-25T21:39:22.618Z,5.65
2022-08-25T21:44:24.425Z,6.00
2022-08-25T21:49:27.502Z,6.35
2022-08-25T21:54:30.442Z,7.88
2022-08-25T21:59:35.208Z,10.07
2022-08-25T22:04:38.936Z,8.45
2022-08-25T22:09:41.401Z,7.40
2022-08-25T22:14:43.196Z,6.82
2022-08-25T22:19:45.709Z,6.13
2022-08-25T22:24:47.624Z,6.53
2022-08-25T22:29:49.455Z,6.75
2022-08-25T22:34:51.385Z,9.32
2022-08-25T22:39:53.742Z,8.25
2022-08-25T22:44:55.994Z,8.55
2022-08-25T22:49:59.357Z,8.70
2022-08-25T22:55:03.496Z,7.35
2022-08-25T23:00:09.299Z,7.18
2022-08-25T23:05:13.268Z,6.78
2022-08-25T23:10:15.547Z,7.43
2022-08-25T23:15:17.709Z,6.72
2022-08-25T23:20:45.072Z,6.97
2022-08-25T23:25:48.365Z,7.65
2022-08-25T23:30:56.968Z,7.53
2022-08-25T23:36:04.292Z,8.40
2022-08-25T23:41:08.407Z,7.68
2022-08-25T23:46:10.558Z,8.48
2022-08-25T23:51:13.427Z,7.22
2022-08-25T23:56:15.682Z,8.13
